Roseland, NE (68973)

1:38 AM CDT on August 24, 2016 (GMT -0500)
Baltimore Place | | Change Station

Elev 1932 ft 40.58 °N, 98.40 °W | Updated 28 seconds ago

Clear
Clear
73.2 °F
Feels Like 76 °F
N
6.3
Wind Variable Wind from WNW

Today
High -- | Low -- °F
--% Chance of Precip.
Yesterday
High -- | Low -- °F
Precip. -- in
Pressure 29.86 in
Visibility 10.0 miles
Clouds Clear
Heat Index 76 °F
Dew Point 59 °F
Humidity 62%
Rainfall 0.00 in
Snow Depth Not available.
6:54 AM 8:17 PM
Waning Gibbous, 60% visible
METAR KHSI 240553Z AUTO 36010KT 10SM CLR 22/16 A2992 RMK AO2 SLP110 T02220161 10311 20222 403330189 51020
Pressure 29.86 in
Visibility 10.0 miles
Clouds Clear
Heat Index 76 °F
Dew Point 59 °F
Humidity 62%
Rainfall 0.00 in
Snow Depth Not available.
6:54 AM 8:17 PM
Waning Gibbous, 60% visible
METAR KHSI 240553Z AUTO 36010KT 10SM CLR 22/16 A2992 RMK AO2 SLP110 T02220161 10311 20222 403330189 51020

10-Day Weather Forecast

Almanac

Astronomy

Aug. 24, 2016 Rise Set
Actual Time
Civil Twilight
Nautical Twilight
Astronomical Twilight
Moon
Length of Visible Light
Length of Day
Tomorrow will be .
, % of the Moon is Illuminated

Today's Extremes

State Highs State Lows

Community

WunderPhotos

Upload Photos

1,934,555 photos uploaded!

WunderBlog® & News

Nearby

Air Quality

  Air Quality AQ Index Pollutant
Not available.

Snow Depth

Station Depth Elevation

Earthquake Activity

City Distance Mag. Time & Date
Minimum magnitude displayed is 2.5.

Coastal Water Temperatures

Place Temperature

Stations

Nearby Weather Stations

Station Location Temp. Windchill Dew Point Humidity Wind Precip. Elev Updated Type
                   

Watches & Warnings

There are currently no watches in effect.